sensor_id;sensor_type;location;lat;lon;timestamp;P1;durP1;ratioP1;P2;durP2;ratioP2
23362;SDS011;11853;48.080;11.960;2023-06-26T00:02:02;6.57;;;5.97;;
23362;SDS011;11853;48.080;11.960;2023-06-26T00:04:28;7.05;;;5.88;;
23362;SDS011;11853;48.080;11.960;2023-06-26T00:06:53;6.40;;;5.85;;
23362;SDS011;11853;48.080;11.960;2023-06-26T00:09:19;6.20;;;5.70;;
23362;SDS011;11853;48.080;11.960;2023-06-26T00:11:45;6.50;;;5.90;;
23362;SDS011;11853;48.080;11.960;2023-06-26T00:14:10;7.03;;;5.70;;
23362;SDS011;11853;48.080;11.960;2023-06-26T00:16:36;7.03;;;6.32;;
23362;SDS011;11853;48.080;11.960;2023-06-26T00:19:01;6.90;;;6.15;;
23362;SDS011;11853;48.080;11.960;2023-06-26T00:21:27;7.30;;;5.65;;
23362;SDS011;11853;48.080;11.960;2023-06-26T00:23:53;6.63;;;5.80;;
23362;SDS011;11853;48.080;11.960;2023-06-26T00:26:18;6.40;;;5.80;;
23362;SDS011;11853;48.080;11.960;2023-06-26T00:28:44;7.60;;;5.90;;
23362;SDS011;11853;48.080;11.960;2023-06-26T00:31:09;6.68;;;6.07;;
23362;SDS011;11853;48.080;11.960;2023-06-26T00:33:35;7.88;;;7.07;;
23362;SDS011;11853;48.080;11.960;2023-06-26T00:36:00;8.00;;;5.88;;
23362;SDS011;11853;48.080;11.960;2023-06-26T00:38:26;6.57;;;5.97;;
23362;SDS011;11853;48.080;11.960;2023-06-26T00:40:52;6.68;;;6.07;;
23362;SDS011;11853;48.080;11.960;2023-06-26T00:43:19;7.00;;;6.40;;
23362;SDS011;11853;48.080;11.960;2023-06-26T00:45:45;7.47;;;6.05;;
23362;SDS011;11853;48.080;11.960;2023-06-26T00:48:10;8.13;;;6.57;;
23362;SDS011;11853;48.080;11.960;2023-06-26T00:50:37;6.82;;;6.22;;
23362;SDS011;11853;48.080;11.960;2023-06-26T00:53:03;6.65;;;5.97;;
23362;SDS011;11853;48.080;11.960;2023-06-26T00:55:29;6.97;;;6.28;;
23362;SDS011;11853;48.080;11.960;2023-06-26T00:57:55;6.93;;;6.30;;
23362;SDS011;11853;48.080;11.960;2023-06-26T01:00:21;6.70;;;6.10;;
23362;SDS011;11853;48.080;11.960;2023-06-26T01:02:47;6.72;;;6.13;;
23362;SDS011;11853;48.080;11.960;2023-06-26T01:05:13;6.70;;;6.10;;
23362;SDS011;11853;48.080;11.960;2023-06-26T01:07:48;7.05;;;6.35;;
23362;SDS011;11853;48.080;11.960;2023-06-26T01:13:36;6.30;;;5.80;;
23362;SDS011;11853;48.080;11.960;2023-06-26T01:16:03;7.28;;;6.32;;
23362;SDS011;11853;48.080;11.960;2023-06-26T01:18:31;7.20;;;6.50;;
23362;SDS011;11853;48.080;11.960;2023-06-26T01:20:58;6.80;;;6.10;;
23362;SDS011;11853;48.080;11.960;2023-06-26T01:23:35;7.85;;;6.93;;
23362;SDS011;11853;48.080;11.960;2023-06-26T01:26:19;7.03;;;6.32;;
23362;SDS011;11853;48.080;11.960;2023-06-26T01:28:46;6.78;;;6.07;;
23362;SDS011;11853;48.080;11.960;2023-06-26T01:31:14;7.50;;;6.80;;
23362;SDS011;11853;48.080;11.960;2023-06-26T01:33:41;8.13;;;7.32;;
23362;SDS011;11853;48.080;11.960;2023-06-26T01:36:08;8.88;;;7.07;;
23362;SDS011;11853;48.080;11.960;2023-06-26T01:38:33;6.82;;;6.22;;
23362;SDS011;11853;48.080;11.960;2023-06-26T01:41:02;7.28;;;6.55;;
23362;SDS011;11853;48.080;11.960;2023-06-26T01:48:59;7.30;;;6.60;;
23362;SDS011;11853;48.080;11.960;2023-06-26T01:51:35;7.18;;;6.47;;
23362;SDS011;11853;48.080;11.960;2023-06-26T01:54:07;7.47;;;6.78;;
23362;SDS011;11853;48.080;11.960;2023-06-26T01:56:39;7.03;;;6.40;;
23362;SDS011;11853;48.080;11.960;2023-06-26T01:59:05;7.47;;;6.78;;
23362;SDS011;11853;48.080;11.960;2023-06-26T02:01:32;7.95;;;7.15;;
23362;SDS011;11853;48.080;11.960;2023-06-26T02:03:59;7.88;;;7.10;;
23362;SDS011;11853;48.080;11.960;2023-06-26T02:06:25;7.95;;;7.22;;
23362;SDS011;11853;48.080;11.960;2023-06-26T02:08:51;7.95;;;7.05;;
23362;SDS011;11853;48.080;11.960;2023-06-26T02:11:16;7.75;;;6.45;;
23362;SDS011;11853;48.080;11.960;2023-06-26T02:13:42;7.70;;;6.50;;
23362;SDS011;11853;48.080;11.960;2023-06-26T02:16:08;7.55;;;6.85;;
23362;SDS011;11853;48.080;11.960;2023-06-26T02:18:33;8.75;;;6.88;;
23362;SDS011;11853;48.080;11.960;2023-06-26T02:20:59;7.53;;;6.57;;
23362;SDS011;11853;48.080;11.960;2023-06-26T02:23:25;8.02;;;6.45;;
23362;SDS011;11853;48.080;11.960;2023-06-26T02:25:51;8.80;;;6.72;;
23362;SDS011;11853;48.080;11.960;2023-06-26T02:28:16;7.60;;;6.80;;
23362;SDS011;11853;48.080;11.960;2023-06-26T02:30:42;8.73;;;6.75;;
23362;SDS011;11853;48.080;11.960;2023-06-26T02:33:08;7.55;;;6.85;;
23362;SDS011;11853;48.080;11.960;2023-06-26T02:35:33;7.88;;;6.93;;
23362;SDS011;11853;48.080;11.960;2023-06-26T02:37:59;7.72;;;6.97;;
23362;SDS011;11853;48.080;11.960;2023-06-26T02:40:25;7.20;;;6.50;;
23362;SDS011;11853;48.080;11.960;2023-06-26T02:42:50;7.93;;;7.10;;
23362;SDS011;11853;48.080;11.960;2023-06-26T02:45:16;8.02;;;7.22;;
23362;SDS011;11853;48.080;11.960;2023-06-26T02:47:42;8.18;;;7.38;;
23362;SDS011;11853;48.080;11.960;2023-06-26T02:50:07;8.70;;;7.78;;
23362;SDS011;11853;48.080;11.960;2023-06-26T02:52:33;8.32;;;7.10;;
23362;SDS011;11853;48.080;11.960;2023-06-26T02:54:59;8.15;;;7.35;;
23362;SDS011;11853;48.080;11.960;2023-06-26T02:57:25;7.60;;;6.90;;
23362;SDS011;11853;48.080;11.960;2023-06-26T02:59:50;9.02;;;7.55;;
23362;SDS011;11853;48.080;11.960;2023-06-26T03:02:16;8.35;;;7.45;;
23362;SDS011;11853;48.080;11.960;2023-06-26T03:04:42;7.90;;;7.20;;
23362;SDS011;11853;48.080;11.960;2023-06-26T03:07:08;8.95;;;7.55;;
23362;SDS011;11853;48.080;11.960;2023-06-26T03:09:34;8.30;;;7.50;;
23362;SDS011;11853;48.080;11.960;2023-06-26T03:18:47;8.90;;;8.00;;
23362;SDS011;11853;48.080;11.960;2023-06-26T03:21:13;8.65;;;7.70;;
23362;SDS011;11853;48.080;11.960;2023-06-26T03:23:38;8.38;;;7.57;;
23362;SDS011;11853;48.080;11.960;2023-06-26T03:26:04;8.32;;;7.47;;
23362;SDS011;11853;48.080;11.960;2023-06-26T03:28:30;11.20;;;8.35;;
23362;SDS011;11853;48.080;11.960;2023-06-26T03:30:56;9.25;;;8.35;;
23362;SDS011;11853;48.080;11.960;2023-06-26T03:33:22;9.57;;;8.65;;
23362;SDS011;11853;48.080;11.960;2023-06-26T03:35:47;9.77;;;8.18;;
23362;SDS011;11853;48.080;11.960;2023-06-26T03:38:13;9.80;;;8.80;;
23362;SDS011;11853;48.080;11.960;2023-06-26T03:40:38;8.95;;;8.05;;
23362;SDS011;11853;48.080;11.960;2023-06-26T03:43:04;8.85;;;7.95;;
23362;SDS011;11853;48.080;11.960;2023-06-26T03:45:30;9.68;;;8.73;;
23362;SDS011;11853;48.080;11.960;2023-06-26T03:47:55;9.18;;;7.85;;
23362;SDS011;11853;48.080;11.960;2023-06-26T03:50:21;10.88;;;8.75;;
23362;SDS011;11853;48.080;11.960;2023-06-26T03:52:46;10.98;;;8.82;;
23362;SDS011;11853;48.080;11.960;2023-06-26T03:55:12;9.90;;;8.90;;
23362;SDS011;11853;48.080;11.960;2023-06-26T03:57:37;11.18;;;9.20;;
23362;SDS011;11853;48.080;11.960;2023-06-26T04:00:03;9.73;;;8.77;;
23362;SDS011;11853;48.080;11.960;2023-06-26T04:02:37;9.43;;;8.50;;
23362;SDS011;11853;48.080;11.960;2023-06-26T04:05:04;10.88;;;9.05;;
23362;SDS011;11853;48.080;11.960;2023-06-26T04:07:30;10.07;;;9.07;;
23362;SDS011;11853;48.080;11.960;2023-06-26T04:09:56;9.40;;;8.52;;
23362;SDS011;11853;48.080;11.960;2023-06-26T04:12:24;10.45;;;8.65;;
23362;SDS011;11853;48.080;11.960;2023-06-26T04:14:50;9.77;;;8.77;;
23362;SDS011;11853;48.080;11.960;2023-06-26T04:17:16;10.55;;;9.45;;
23362;SDS011;11853;48.080;11.960;2023-06-26T04:19:41;11.25;;;9.07;;
23362;SDS011;11853;48.080;11.960;2023-06-26T04:22:07;10.32;;;9.10;;
23362;SDS011;11853;48.080;11.960;2023-06-26T04:24:32;9.30;;;8.43;;
23362;SDS011;11853;48.080;11.960;2023-06-26T04:26:58;10.27;;;9.27;;
23362;SDS011;11853;48.080;11.960;2023-06-26T04:29:25;9.60;;;8.70;;
23362;SDS011;11853;48.080;11.960;2023-06-26T04:31:52;9.45;;;8.55;;
23362;SDS011;11853;48.080;11.960;2023-06-26T04:34:23;9.85;;;8.52;;
23362;SDS011;11853;48.080;11.960;2023-06-26T04:36:52;10.00;;;8.45;;
23362;SDS011;11853;48.080;11.960;2023-06-26T04:39:17;9.73;;;8.65;;
23362;SDS011;11853;48.080;11.960;2023-06-26T04:41:44;8.55;;;7.53;;
23362;SDS011;11853;48.080;11.960;2023-06-26T04:44:10;9.30;;;8.40;;
23362;SDS011;11853;48.080;11.960;2023-06-26T04:46:36;9.05;;;8.13;;
23362;SDS011;11853;48.080;11.960;2023-06-26T04:49:06;8.40;;;7.60;;
23362;SDS011;11853;48.080;11.960;2023-06-26T04:51:32;9.43;;;8.32;;
23362;SDS011;11853;48.080;11.960;2023-06-26T04:53:58;9.43;;;8.25;;
23362;SDS011;11853;48.080;11.960;2023-06-26T04:56:24;10.38;;;9.05;;
23362;SDS011;11853;48.080;11.960;2023-06-26T04:58:49;9.35;;;8.43;;
23362;SDS011;11853;48.080;11.960;2023-06-26T05:01:15;8.27;;;7.47;;
23362;SDS011;11853;48.080;11.960;2023-06-26T05:03:40;9.32;;;8.40;;
23362;SDS011;11853;48.080;11.960;2023-06-26T05:06:06;9.65;;;8.50;;
23362;SDS011;11853;48.080;11.960;2023-06-26T05:08:32;8.45;;;7.65;;
23362;SDS011;11853;48.080;11.960;2023-06-26T05:10:57;11.00;;;8.48;;
23362;SDS011;11853;48.080;11.960;2023-06-26T05:13:23;10.43;;;8.45;;
23362;SDS011;11853;48.080;11.960;2023-06-26T05:15:50;9.25;;;8.35;;
23362;SDS011;11853;48.080;11.960;2023-06-26T05:18:17;9.50;;;8.20;;
23362;SDS011;11853;48.080;11.960;2023-06-26T05:20:42;8.90;;;8.00;;
23362;SDS011;11853;48.080;11.960;2023-06-26T05:23:08;9.43;;;8.10;;
23362;SDS011;11853;48.080;11.960;2023-06-26T05:25:37;9.18;;;8.18;;
23362;SDS011;11853;48.080;11.960;2023-06-26T05:28:03;9.10;;;8.07;;
23362;SDS011;11853;48.080;11.960;2023-06-26T05:30:33;8.65;;;7.82;;
23362;SDS011;11853;48.080;11.960;2023-06-26T05:33:02;8.60;;;7.70;;
23362;SDS011;11853;48.080;11.960;2023-06-26T05:35:28;8.88;;;7.57;;
23362;SDS011;11853;48.080;11.960;2023-06-26T05:37:55;8.93;;;8.02;;
23362;SDS011;11853;48.080;11.960;2023-06-26T05:40:22;9.57;;;8.57;;
23362;SDS011;11853;48.080;11.960;2023-06-26T05:42:47;8.25;;;7.43;;
23362;SDS011;11853;48.080;11.960;2023-06-26T05:45:13;8.18;;;7.28;;
23362;SDS011;11853;48.080;11.960;2023-06-26T05:47:39;9.02;;;8.00;;
23362;SDS011;11853;48.080;11.960;2023-06-26T05:50:06;8.27;;;7.47;;
23362;SDS011;11853;48.080;11.960;2023-06-26T05:52:32;9.15;;;8.25;;
23362;SDS011;11853;48.080;11.960;2023-06-26T05:54:58;9.65;;;8.65;;
23362;SDS011;11853;48.080;11.960;2023-06-26T05:57:28;9.38;;;8.48;;
23362;SDS011;11853;48.080;11.960;2023-06-26T05:59:54;9.52;;;8.10;;
23362;SDS011;11853;48.080;11.960;2023-06-26T06:02:21;9.27;;;8.23;;
23362;SDS011;11853;48.080;11.960;2023-06-26T06:04:47;8.90;;;7.97;;
23362;SDS011;11853;48.080;11.960;2023-06-26T06:07:12;10.07;;;8.43;;
23362;SDS011;11853;48.080;11.960;2023-06-26T06:09:38;9.05;;;8.25;;
23362;SDS011;11853;48.080;11.960;2023-06-26T06:12:07;10.95;;;8.98;;
23362;SDS011;11853;48.080;11.960;2023-06-26T06:14:33;9.27;;;8.32;;
23362;SDS011;11853;48.080;11.960;2023-06-26T06:16:59;9.85;;;8.85;;
23362;SDS011;11853;48.080;11.960;2023-06-26T06:19:24;9.90;;;8.90;;
23362;SDS011;11853;48.080;11.960;2023-06-26T06:21:50;11.00;;;9.77;;
23362;SDS011;11853;48.080;11.960;2023-06-26T06:24:16;9.50;;;8.45;;
23362;SDS011;11853;48.080;11.960;2023-06-26T06:26:41;11.02;;;8.80;;
23362;SDS011;11853;48.080;11.960;2023-06-26T06:29:07;9.73;;;8.73;;
23362;SDS011;11853;48.080;11.960;2023-06-26T06:31:33;10.13;;;8.60;;
23362;SDS011;11853;48.080;11.960;2023-06-26T06:33:58;7.82;;;7.10;;
23362;SDS011;11853;48.080;11.960;2023-06-26T06:36:24;8.80;;;7.90;;
23362;SDS011;11853;48.080;11.960;2023-06-26T06:38:49;10.65;;;8.35;;
23362;SDS011;11853;48.080;11.960;2023-06-26T06:41:15;8.48;;;7.50;;
23362;SDS011;11853;48.080;11.960;2023-06-26T06:43:41;7.90;;;7.20;;
23362;SDS011;11853;48.080;11.960;2023-06-26T06:46:07;9.45;;;7.63;;
23362;SDS011;11853;48.080;11.960;2023-06-26T06:48:33;8.65;;;7.85;;
23362;SDS011;11853;48.080;11.960;2023-06-26T06:50:59;8.85;;;7.63;;
23362;SDS011;11853;48.080;11.960;2023-06-26T06:53:25;9.50;;;8.02;;
23362;SDS011;11853;48.080;11.960;2023-06-26T06:55:50;9.02;;;8.07;;
23362;SDS011;11853;48.080;11.960;2023-06-26T06:58:16;9.40;;;8.00;;
23362;SDS011;11853;48.080;11.960;2023-06-26T07:00:44;7.95;;;7.25;;
23362;SDS011;11853;48.080;11.960;2023-06-26T07:03:10;8.00;;;7.20;;
23362;SDS011;11853;48.080;11.960;2023-06-26T07:05:35;8.38;;;7.57;;
23362;SDS011;11853;48.080;11.960;2023-06-26T07:08:02;8.57;;;7.70;;
23362;SDS011;11853;48.080;11.960;2023-06-26T07:10:28;9.93;;;8.43;;
23362;SDS011;11853;48.080;11.960;2023-06-26T07:12:54;10.23;;;8.02;;
23362;SDS011;11853;48.080;11.960;2023-06-26T07:15:19;8.35;;;7.55;;
23362;SDS011;11853;48.080;11.960;2023-06-26T07:17:45;8.82;;;7.93;;
23362;SDS011;11853;48.080;11.960;2023-06-26T07:20:11;8.65;;;7.75;;
23362;SDS011;11853;48.080;11.960;2023-06-26T07:22:40;7.78;;;7.07;;
23362;SDS011;11853;48.080;11.960;2023-06-26T07:25:07;8.68;;;7.75;;
23362;SDS011;11853;48.080;11.960;2023-06-26T07:27:36;9.60;;;8.60;;
23362;SDS011;11853;48.080;11.960;2023-06-26T07:30:02;9.52;;;7.93;;
23362;SDS011;11853;48.080;11.960;2023-06-26T07:32:28;8.75;;;7.50;;
23362;SDS011;11853;48.080;11.960;2023-06-26T07:34:54;8.68;;;7.88;;
23362;SDS011;11853;48.080;11.960;2023-06-26T07:37:19;11.35;;;9.40;;
23362;SDS011;11853;48.080;11.960;2023-06-26T07:39:45;9.18;;;8.27;;
23362;SDS011;11853;48.080;11.960;2023-06-26T07:42:11;8.27;;;7.55;;
23362;SDS011;11853;48.080;11.960;2023-06-26T07:44:36;8.02;;;7.28;;
23362;SDS011;11853;48.080;11.960;2023-06-26T07:47:02;9.27;;;8.48;;
23362;SDS011;11853;48.080;11.960;2023-06-26T07:49:28;9.10;;;8.20;;
23362;SDS011;11853;48.080;11.960;2023-06-26T07:51:54;8.68;;;7.82;;
23362;SDS011;11853;48.080;11.960;2023-06-26T07:54:19;9.13;;;8.23;;
23362;SDS011;11853;48.080;11.960;2023-06-26T07:56:52;9.00;;;7.70;;
23362;SDS011;11853;48.080;11.960;2023-06-26T07:59:19;8.15;;;7.35;;
23362;SDS011;11853;48.080;11.960;2023-06-26T08:01:46;8.52;;;7.72;;
23362;SDS011;11853;48.080;11.960;2023-06-26T08:04:11;7.78;;;7.07;;
23362;SDS011;11853;48.080;11.960;2023-06-26T08:06:37;9.38;;;7.75;;
23362;SDS011;11853;48.080;11.960;2023-06-26T08:09:05;7.95;;;7.15;;
23362;SDS011;11853;48.080;11.960;2023-06-26T08:11:32;8.30;;;7.43;;
23362;SDS011;11853;48.080;11.960;2023-06-26T08:13:58;8.45;;;7.65;;
23362;SDS011;11853;48.080;11.960;2023-06-26T08:16:24;8.38;;;7.32;;
23362;SDS011;11853;48.080;11.960;2023-06-26T08:18:50;9.05;;;8.23;;
23362;SDS011;11853;48.080;11.960;2023-06-26T08:21:15;8.10;;;7.30;;
23362;SDS011;11853;48.080;11.960;2023-06-26T08:23:41;7.93;;;7.13;;
23362;SDS011;11853;48.080;11.960;2023-06-26T08:26:07;7.43;;;6.82;;
23362;SDS011;11853;48.080;11.960;2023-06-26T08:28:33;10.10;;;7.53;;
23362;SDS011;11853;48.080;11.960;2023-06-26T08:30:59;7.95;;;7.25;;
23362;SDS011;11853;48.080;11.960;2023-06-26T08:33:24;8.60;;;7.80;;
23362;SDS011;11853;48.080;11.960;2023-06-26T08:35:51;7.35;;;6.65;;
23362;SDS011;11853;48.080;11.960;2023-06-26T08:38:16;7.65;;;6.95;;
23362;SDS011;11853;48.080;11.960;2023-06-26T08:40:42;7.95;;;6.78;;
23362;SDS011;11853;48.080;11.960;2023-06-26T08:43:08;8.18;;;7.38;;
23362;SDS011;11853;48.080;11.960;2023-06-26T08:45:35;7.40;;;6.75;;
23362;SDS011;11853;48.080;11.960;2023-06-26T08:48:01;8.13;;;7.32;;
23362;SDS011;11853;48.080;11.960;2023-06-26T08:50:30;9.27;;;7.65;;
23362;SDS011;11853;48.080;11.960;2023-06-26T08:53:17;8.10;;;7.30;;
23362;SDS011;11853;48.080;11.960;2023-06-26T08:55:45;8.38;;;7.15;;
23362;SDS011;11853;48.080;11.960;2023-06-26T08:58:14;7.38;;;6.78;;
23362;SDS011;11853;48.080;11.960;2023-06-26T09:00:40;7.63;;;6.95;;
23362;SDS011;11853;48.080;11.960;2023-06-26T09:03:06;8.52;;;7.22;;
23362;SDS011;11853;48.080;11.960;2023-06-26T09:05:34;7.68;;;6.97;;
23362;SDS011;11853;48.080;11.960;2023-06-26T09:08:00;7.70;;;6.95;;
23362;SDS011;11853;48.080;11.960;2023-06-26T09:10:26;7.55;;;6.90;;
23362;SDS011;11853;48.080;11.960;2023-06-26T09:12:54;7.28;;;6.57;;
23362;SDS011;11853;48.080;11.960;2023-06-26T09:15:20;7.85;;;7.15;;
23362;SDS011;11853;48.080;11.960;2023-06-26T09:17:47;7.85;;;7.05;;
23362;SDS011;11853;48.080;11.960;2023-06-26T09:20:13;7.15;;;6.55;;
23362;SDS011;11853;48.080;11.960;2023-06-26T09:22:40;7.43;;;6.53;;
23362;SDS011;11853;48.080;11.960;2023-06-26T09:25:08;7.50;;;6.80;;
23362;SDS011;11853;48.080;11.960;2023-06-26T09:27:35;7.10;;;6.50;;
23362;SDS011;11853;48.080;11.960;2023-06-26T09:30:05;8.18;;;7.38;;
23362;SDS011;11853;48.080;11.960;2023-06-26T09:32:34;7.63;;;6.93;;
23362;SDS011;11853;48.080;11.960;2023-06-26T09:35:02;7.70;;;7.00;;
23362;SDS011;11853;48.080;11.960;2023-06-26T09:37:28;7.18;;;6.47;;
23362;SDS011;11853;48.080;11.960;2023-06-26T09:39:54;7.47;;;6.80;;
23362;SDS011;11853;48.080;11.960;2023-06-26T09:42:20;7.43;;;6.72;;
23362;SDS011;11853;48.080;11.960;2023-06-26T09:44:46;7.00;;;6.40;;
23362;SDS011;11853;48.080;11.960;2023-06-26T09:47:16;6.53;;;5.93;;
23362;SDS011;11853;48.080;11.960;2023-06-26T09:49:44;5.90;;;5.40;;
23362;SDS011;11853;48.080;11.960;2023-06-26T09:52:13;6.90;;;6.20;;
23362;SDS011;11853;48.080;11.960;2023-06-26T09:54:41;6.30;;;5.70;;
23362;SDS011;11853;48.080;11.960;2023-06-26T09:57:09;6.97;;;6.25;;
23362;SDS011;11853;48.080;11.960;2023-06-26T09:59:36;6.43;;;5.80;;
23362;SDS011;11853;48.080;11.960;2023-06-26T10:02:02;6.25;;;5.70;;
23362;SDS011;11853;48.080;11.960;2023-06-26T10:04:27;6.13;;;5.63;;
23362;SDS011;11853;48.080;11.960;2023-06-26T10:06:56;6.68;;;6.15;;
23362;SDS011;11853;48.080;11.960;2023-06-26T10:09:23;5.53;;;5.05;;
23362;SDS011;11853;48.080;11.960;2023-06-26T10:11:56;6.00;;;5.40;;
23362;SDS011;11853;48.080;11.960;2023-06-26T10:14:27;6.05;;;5.25;;
23362;SDS011;11853;48.080;11.960;2023-06-26T10:16:57;5.88;;;5.38;;
23362;SDS011;11853;48.080;11.960;2023-06-26T10:19:24;6.03;;;5.53;;
23362;SDS011;11853;48.080;11.960;2023-06-26T10:21:53;5.78;;;5.28;;
23362;SDS011;11853;48.080;11.960;2023-06-26T10:24:23;6.07;;;5.53;;
23362;SDS011;11853;48.080;11.960;2023-06-26T10:26:50;5.93;;;5.35;;
23362;SDS011;11853;48.080;11.960;2023-06-26T10:29:21;5.72;;;5.20;;
23362;SDS011;11853;48.080;11.960;2023-06-26T10:31:53;5.53;;;5.03;;
23362;SDS011;11853;48.080;11.960;2023-06-26T10:34:22;6.35;;;5.75;;
23362;SDS011;11853;48.080;11.960;2023-06-26T10:36:48;6.88;;;5.70;;
23362;SDS011;11853;48.080;11.960;2023-06-26T10:39:25;5.47;;;4.97;;
23362;SDS011;11853;48.080;11.960;2023-06-26T10:41:51;5.60;;;5.20;;
23362;SDS011;11853;48.080;11.960;2023-06-26T10:44:20;5.53;;;5.03;;
23362;SDS011;11853;48.080;11.960;2023-06-26T10:46:53;5.38;;;4.88;;
23362;SDS011;11853;48.080;11.960;2023-06-26T10:49:20;5.60;;;5.10;;
23362;SDS011;11853;48.080;11.960;2023-06-26T10:51:50;6.13;;;5.53;;
23362;SDS011;11853;48.080;11.960;2023-06-26T10:54:16;5.65;;;5.22;;
23362;SDS011;11853;48.080;11.960;2023-06-26T10:56:47;6.47;;;5.97;;
23362;SDS011;11853;48.080;11.960;2023-06-26T11:01:44;6.47;;;5.82;;
23362;SDS011;11853;48.080;11.960;2023-06-26T11:07:16;5.82;;;5.35;;
23362;SDS011;11853;48.080;11.960;2023-06-26T11:09:55;5.85;;;5.25;;
23362;SDS011;11853;48.080;11.960;2023-06-26T11:12:38;5.90;;;5.40;;
23362;SDS011;11853;48.080;11.960;2023-06-26T11:15:15;5.88;;;5.38;;
23362;SDS011;11853;48.080;11.960;2023-06-26T11:17:42;5.30;;;4.90;;
23362;SDS011;11853;48.080;11.960;2023-06-26T11:20:12;5.07;;;4.68;;
23362;SDS011;11853;48.080;11.960;2023-06-26T11:22:41;5.50;;;5.10;;
23362;SDS011;11853;48.080;11.960;2023-06-26T11:25:08;5.22;;;4.80;;
23362;SDS011;11853;48.080;11.960;2023-06-26T11:30:04;5.43;;;4.93;;
23362;SDS011;11853;48.080;11.960;2023-06-26T11:32:31;5.40;;;4.68;;
23362;SDS011;11853;48.080;11.960;2023-06-26T11:34:58;5.35;;;4.90;;
23362;SDS011;11853;48.080;11.960;2023-06-26T11:37:26;5.13;;;4.72;;
23362;SDS011;11853;48.080;11.960;2023-06-26T11:39:52;5.68;;;5.18;;
23362;SDS011;11853;48.080;11.960;2023-06-26T11:42:19;4.97;;;4.57;;
23362;SDS011;11853;48.080;11.960;2023-06-26T11:44:46;5.10;;;4.70;;
23362;SDS011;11853;48.080;11.960;2023-06-26T11:47:13;5.18;;;4.78;;
23362;SDS011;11853;48.080;11.960;2023-06-26T11:49:43;5.30;;;4.88;;
23362;SDS011;11853;48.080;11.960;2023-06-26T11:52:13;4.60;;;4.20;;
23362;SDS011;11853;48.080;11.960;2023-06-26T11:54:40;5.75;;;5.07;;
23362;SDS011;11853;48.080;11.960;2023-06-26T11:57:07;4.70;;;4.22;;
23362;SDS011;11853;48.080;11.960;2023-06-26T11:59:42;4.85;;;4.45;;
23362;SDS011;11853;48.080;11.960;2023-06-26T12:02:14;5.38;;;4.60;;
23362;SDS011;11853;48.080;11.960;2023-06-26T12:04:41;5.15;;;4.75;;
23362;SDS011;11853;48.080;11.960;2023-06-26T12:07:07;5.65;;;4.70;;
23362;SDS011;11853;48.080;11.960;2023-06-26T12:09:42;4.95;;;4.55;;
23362;SDS011;11853;48.080;11.960;2023-06-26T12:12:11;5.65;;;5.07;;
23362;SDS011;11853;48.080;11.960;2023-06-26T12:14:40;5.25;;;4.78;;
23362;SDS011;11853;48.080;11.960;2023-06-26T12:17:09;6.25;;;5.65;;
23362;SDS011;11853;48.080;11.960;2023-06-26T12:19:54;5.25;;;4.75;;
23362;SDS011;11853;48.080;11.960;2023-06-26T12:22:19;9.38;;;5.10;;
23362;SDS011;11853;48.080;11.960;2023-06-26T12:24:45;5.57;;;5.05;;
23362;SDS011;11853;48.080;11.960;2023-06-26T12:27:13;8.25;;;5.13;;
23362;SDS011;11853;48.080;11.960;2023-06-26T12:29:40;5.63;;;5.13;;
23362;SDS011;11853;48.080;11.960;2023-06-26T12:32:08;6.18;;;5.57;;
23362;SDS011;11853;48.080;11.960;2023-06-26T12:34:35;6.18;;;5.68;;
23362;SDS011;11853;48.080;11.960;2023-06-26T12:37:05;5.50;;;5.10;;
23362;SDS011;11853;48.080;11.960;2023-06-26T12:39:48;6.05;;;5.50;;
23362;SDS011;11853;48.080;11.960;2023-06-26T12:42:17;5.95;;;5.25;;
23362;SDS011;11853;48.080;11.960;2023-06-26T12:47:14;5.57;;;5.07;;
23362;SDS011;11853;48.080;11.960;2023-06-26T12:49:40;6.22;;;5.63;;
23362;SDS011;11853;48.080;11.960;2023-06-26T12:52:10;5.65;;;5.13;;
23362;SDS011;11853;48.080;11.960;2023-06-26T12:54:41;5.50;;;5.10;;
23362;SDS011;11853;48.080;11.960;2023-06-26T12:57:08;5.70;;;5.27;;
23362;SDS011;11853;48.080;11.960;2023-06-26T12:59:37;6.07;;;5.47;;
23362;SDS011;11853;48.080;11.960;2023-06-26T13:02:03;6.40;;;5.90;;
23362;SDS011;11853;48.080;11.960;2023-06-26T13:04:30;6.95;;;6.28;;
23362;SDS011;11853;48.080;11.960;2023-06-26T13:06:55;6.35;;;5.80;;
23362;SDS011;11853;48.080;11.960;2023-06-26T13:09:22;6.20;;;5.60;;
23362;SDS011;11853;48.080;11.960;2023-06-26T13:11:50;6.57;;;5.97;;
23362;SDS011;11853;48.080;11.960;2023-06-26T13:14:19;6.60;;;6.00;;
23362;SDS011;11853;48.080;11.960;2023-06-26T13:16:46;6.65;;;6.05;;
23362;SDS011;11853;48.080;11.960;2023-06-26T13:19:12;6.40;;;5.90;;
23362;SDS011;11853;48.080;11.960;2023-06-26T13:21:37;6.65;;;5.97;;
23362;SDS011;11853;48.080;11.960;2023-06-26T13:24:03;6.72;;;6.13;;
23362;SDS011;11853;48.080;11.960;2023-06-26T13:26:29;7.18;;;5.75;;
23362;SDS011;11853;48.080;11.960;2023-06-26T13:28:55;5.97;;;5.47;;
23362;SDS011;11853;48.080;11.960;2023-06-26T13:31:21;6.93;;;5.88;;
23362;SDS011;11853;48.080;11.960;2023-06-26T13:33:47;6.32;;;5.72;;
23362;SDS011;11853;48.080;11.960;2023-06-26T13:36:17;6.85;;;6.22;;
23362;SDS011;11853;48.080;11.960;2023-06-26T13:38:43;6.30;;;5.75;;
23362;SDS011;11853;48.080;11.960;2023-06-26T13:41:09;6.72;;;6.13;;
23362;SDS011;11853;48.080;11.960;2023-06-26T13:43:35;6.63;;;5.78;;
23362;SDS011;11853;48.080;11.960;2023-06-26T13:46:01;7.00;;;6.35;;
23362;SDS011;11853;48.080;11.960;2023-06-26T13:48:28;6.63;;;6.03;;
23362;SDS011;11853;48.080;11.960;2023-06-26T13:50:53;6.68;;;6.03;;
23362;SDS011;11853;48.080;11.960;2023-06-26T13:53:19;6.65;;;6.05;;
23362;SDS011;11853;48.080;11.960;2023-06-26T13:55:45;6.50;;;6.00;;
23362;SDS011;11853;48.080;11.960;2023-06-26T13:58:10;6.78;;;6.13;;
23362;SDS011;11853;48.080;11.960;2023-06-26T14:00:38;6.90;;;6.30;;
23362;SDS011;11853;48.080;11.960;2023-06-26T14:03:04;7.15;;;6.50;;
23362;SDS011;11853;48.080;11.960;2023-06-26T14:05:34;7.57;;;6.88;;
23362;SDS011;11853;48.080;11.960;2023-06-26T14:08:04;7.25;;;6.43;;
23362;SDS011;11853;48.080;11.960;2023-06-26T14:10:32;8.25;;;6.40;;
23362;SDS011;11853;48.080;11.960;2023-06-26T14:13:01;7.30;;;6.60;;
23362;SDS011;11853;48.080;11.960;2023-06-26T14:15:28;7.47;;;6.47;;
23362;SDS011;11853;48.080;11.960;2023-06-26T14:17:53;6.63;;;5.93;;
23362;SDS011;11853;48.080;11.960;2023-06-26T14:20:20;7.10;;;6.50;;
23362;SDS011;11853;48.080;11.960;2023-06-26T14:22:47;7.50;;;6.80;;
23362;SDS011;11853;48.080;11.960;2023-06-26T14:25:14;7.07;;;6.13;;
23362;SDS011;11853;48.080;11.960;2023-06-26T14:27:40;7.40;;;6.25;;
23362;SDS011;11853;48.080;11.960;2023-06-26T14:30:06;7.30;;;6.60;;
23362;SDS011;11853;48.080;11.960;2023-06-26T14:32:33;6.90;;;6.40;;
23362;SDS011;11853;48.080;11.960;2023-06-26T14:34:59;6.93;;;6.32;;
23362;SDS011;11853;48.080;11.960;2023-06-26T14:37:25;7.43;;;6.75;;
23362;SDS011;11853;48.080;11.960;2023-06-26T14:39:51;7.38;;;6.43;;
23362;SDS011;11853;48.080;11.960;2023-06-26T14:42:16;7.20;;;6.50;;
23362;SDS011;11853;48.080;11.960;2023-06-26T14:44:42;7.22;;;6.45;;
23362;SDS011;11853;48.080;11.960;2023-06-26T14:47:07;6.40;;;5.90;;
23362;SDS011;11853;48.080;11.960;2023-06-26T14:49:33;8.13;;;7.03;;
23362;SDS011;11853;48.080;11.960;2023-06-26T14:51:59;7.72;;;6.78;;
23362;SDS011;11853;48.080;11.960;2023-06-26T14:54:24;7.68;;;7.03;;
23362;SDS011;11853;48.080;11.960;2023-06-26T14:56:50;7.65;;;6.68;;
23362;SDS011;11853;48.080;11.960;2023-06-26T14:59:16;6.80;;;6.20;;